Terminal Aerodrome Forecast
Issued by NWS

Home | Current Version | Previous Version | Text Only | Print | Product List | Glossary On
Versions: 1 2 3 4 5 6 7 8 9 10 11 12 13 14 15 16 17 18 19 20 21
000
FTUS43 KAPX 011700
TAFTVC
TAF
KTVC 011720Z 0118/0218 11005KT P6SM OVC016
     FM012200 13005KT P6SM OVC028
     FM020200 13004KT P6SM SCT035
     FM020800 15005KT P6SM BKN150
     FM021100 14006KT P6SM OVC060
     FM021300 15007KT 5SM -RA OVC040=

USA.gov is the U.S. government's official web portal to all federal, state and local government web resources and services.